createdAt,value
2022-08-22T00:00:19.339Z,99.90
2022-08-22T00:01:35.801Z,99.90
2022-08-22T00:02:49.028Z,99.90
2022-08-22T00:02:49.935Z,99.90
2022-08-22T00:02:54.060Z,99.90
2022-08-22T00:03:00.129Z,99.90
2022-08-22T00:03:01.117Z,99.90
2022-08-22T00:03:02.938Z,99.90
2022-08-22T00:04:56.972Z,99.90
2022-08-22T00:06:01.784Z,99.90
2022-08-22T00:07:29.781Z,99.90
2022-08-22T00:08:57.783Z,99.90
2022-08-22T00:10:12.726Z,99.90
2022-08-22T00:11:45.005Z,99.90
2022-08-22T00:12:58.374Z,99.90
2022-08-22T00:14:12.855Z,99.90
2022-08-22T00:15:42.233Z,99.90
2022-08-22T00:16:51.624Z,99.90
2022-08-22T00:18:03.130Z,99.90
2022-08-22T00:19:07.426Z,99.90
2022-08-22T00:20:15.197Z,99.90
2022-08-22T00:21:19.183Z,99.90
2022-08-22T00:22:42.603Z,99.90
2022-08-22T00:23:59.866Z,99.90
2022-08-22T00:25:25.564Z,99.90
2022-08-22T00:26:45.757Z,99.90
2022-08-22T00:28:09.499Z,99.90
2022-08-22T00:29:26.557Z,99.90
2022-08-22T00:30:37.699Z,99.90
2022-08-22T00:31:50.201Z,99.90
2022-08-22T00:33:03.455Z,99.90
2022-08-22T00:34:17.157Z,99.90
2022-08-22T00:35:33.956Z,99.90
2022-08-22T00:37:07.679Z,99.90
2022-08-22T00:38:22.279Z,99.90
2022-08-22T00:39:48.620Z,99.90
2022-08-22T00:40:59.479Z,99.90
2022-08-22T00:42:34.108Z,99.90
2022-08-22T00:44:01.119Z,99.90
2022-08-22T00:45:12.867Z,99.90
2022-08-22T00:46:38.460Z,99.90
2022-08-22T00:48:14.355Z,99.90
2022-08-22T00:50:01.169Z,99.90
2022-08-22T00:51:39.805Z,99.90
2022-08-22T00:53:14.303Z,99.90
2022-08-22T00:54:34.495Z,99.90
2022-08-22T00:56:20.451Z,99.90
2022-08-22T00:57:39.097Z,99.90
2022-08-22T00:59:23.233Z,99.90
2022-08-22T01:00:29.473Z,99.90
2022-08-22T01:01:44.397Z,99.90
2022-08-22T01:03:13.305Z,99.90
2022-08-22T01:04:34.295Z,99.90
2022-08-22T01:06:04.922Z,99.90
2022-08-22T01:07:30.539Z,99.90
2022-08-22T01:08:54.832Z,99.90
2022-08-22T01:10:21.377Z,99.90
2022-08-22T01:11:56.868Z,99.90
2022-08-22T01:13:29.027Z,99.90
2022-08-22T01:14:38.034Z,99.90
2022-08-22T01:15:42.746Z,99.90
2022-08-22T01:17:24.005Z,99.90
2022-08-22T01:18:58.720Z,99.90
2022-08-22T01:20:37.909Z,99.90
2022-08-22T01:22:17.101Z,99.90
2022-08-22T01:23:52.995Z,99.90
2022-08-22T01:25:30.697Z,99.90
2022-08-22T01:26:35.504Z,99.90
2022-08-22T01:27:55.503Z,99.90
2022-08-22T01:29:31.547Z,99.90
2022-08-22T01:30:59.056Z,99.90
2022-08-22T01:33:47.524Z,99.90
2022-08-22T01:35:00.432Z,99.90
2022-08-22T01:36:30.735Z,99.90
2022-08-22T01:38:01.681Z,99.90
2022-08-22T01:39:03.803Z,99.90
2022-08-22T01:40:37.604Z,99.90
2022-08-22T01:42:13.051Z,99.90
2022-08-22T01:43:58.877Z,99.90
2022-08-22T01:45:26.566Z,99.90
2022-08-22T01:46:49.217Z,99.90
2022-08-22T01:48:10.586Z,99.90
2022-08-22T01:49:28.199Z,99.90
2022-08-22T01:50:49.414Z,99.90
2022-08-22T01:52:00.168Z,99.90
2022-08-22T01:53:24.089Z,99.90
2022-08-22T01:54:25.798Z,99.90
2022-08-22T01:55:41.261Z,99.90
2022-08-22T01:56:45.823Z,99.90
2022-08-22T01:58:04.924Z,99.90
2022-08-22T01:59:17.601Z,99.90
2022-08-22T02:00:34.872Z,99.90
2022-08-22T02:02:14.601Z,99.90
2022-08-22T02:03:37.428Z,99.90
2022-08-22T02:04:48.160Z,99.90
2022-08-22T02:05:58.931Z,99.90
2022-08-22T02:07:16.256Z,99.90
2022-08-22T02:08:55.616Z,99.90
2022-08-22T02:10:18.037Z,99.90
2022-08-22T02:11:52.252Z,99.90
2022-08-22T02:13:08.318Z,99.90
2022-08-22T02:14:31.530Z,99.90
2022-08-22T02:15:50.225Z,99.90
2022-08-22T02:17:06.907Z,99.90
2022-08-22T02:18:12.338Z,99.90
2022-08-22T02:19:14.057Z,99.90
2022-08-22T02:20:23.227Z,99.90
2022-08-22T02:21:40.582Z,99.90
2022-08-22T02:22:44.415Z,99.90
2022-08-22T02:24:04.977Z,99.90
2022-08-22T02:25:23.848Z,99.90
2022-08-22T02:26:27.871Z,99.90
2022-08-22T02:27:57.584Z,99.90
2022-08-22T02:29:20.884Z,99.90
2022-08-22T02:30:30.474Z,99.90
2022-08-22T02:31:59.561Z,99.90
2022-08-22T02:33:10.812Z,99.90
2022-08-22T02:34:39.925Z,99.90
2022-08-22T02:36:00.297Z,99.90
2022-08-22T02:37:33.360Z,99.90
2022-08-22T02:38:49.356Z,99.90
2022-08-22T02:40:10.868Z,99.90
2022-08-22T02:41:21.070Z,99.90
2022-08-22T02:42:40.832Z,99.90
2022-08-22T02:43:57.504Z,99.90
2022-08-22T02:45:18.068Z,99.90
2022-08-22T02:47:05.434Z,99.90
2022-08-22T02:48:44.857Z,99.90
2022-08-22T02:50:16.872Z,99.90
2022-08-22T02:51:56.676Z,99.90
2022-08-22T02:53:32.875Z,99.90
2022-08-22T02:55:00.882Z,99.90
2022-08-22T02:56:22.453Z,99.90
2022-08-22T02:57:44.892Z,99.90
2022-08-22T02:59:12.168Z,99.90
2022-08-22T03:00:32.790Z,99.90
2022-08-22T03:01:40.806Z,99.90
2022-08-22T03:03:01.316Z,99.90
2022-08-22T03:04:25.029Z,99.90
2022-08-22T03:05:51.960Z,99.90
2022-08-22T03:07:13.539Z,99.90
2022-08-22T03:08:38.865Z,99.90
2022-08-22T03:09:55.131Z,99.90
2022-08-22T03:11:18.168Z,99.90
2022-08-22T03:12:48.952Z,99.90
2022-08-22T03:14:02.662Z,99.90
2022-08-22T03:15:07.248Z,99.90
2022-08-22T03:16:17.912Z,99.90
2022-08-22T03:17:26.640Z,99.90
2022-08-22T03:18:33.389Z,99.90
2022-08-22T03:19:56.901Z,99.90
2022-08-22T03:21:43.990Z,99.90
2022-08-22T03:23:04.809Z,99.90
2022-08-22T03:24:18.267Z,99.90
2022-08-22T03:25:46.111Z,99.90
2022-08-22T03:26:58.091Z,99.90
2022-08-22T03:28:13.560Z,99.90
2022-08-22T03:29:39.637Z,99.90
2022-08-22T03:30:45.152Z,99.90
2022-08-22T03:32:07.400Z,99.90
2022-08-22T03:33:21.731Z,99.90
2022-08-22T03:34:27.216Z,99.90
2022-08-22T03:35:32.340Z,99.90
2022-08-22T03:36:35.177Z,99.90
2022-08-22T03:37:41.848Z,99.90
2022-08-22T03:38:49.334Z,99.90
2022-08-22T03:39:51.294Z,99.90
2022-08-22T03:41:41.858Z,99.90
2022-08-22T03:43:25.076Z,99.90
2022-08-22T03:44:58.900Z,99.90
2022-08-22T03:46:38.117Z,99.90
2022-08-22T03:47:48.899Z,99.90
2022-08-22T03:49:22.765Z,99.90
2022-08-22T03:50:43.825Z,99.90
2022-08-22T03:52:11.495Z,99.90
2022-08-22T03:53:51.292Z,99.90
2022-08-22T03:55:02.232Z,99.90
2022-08-22T03:56:38.204Z,99.90
2022-08-22T03:58:19.172Z,99.90
2022-08-22T03:59:48.185Z,99.90
2022-08-22T04:01:05.203Z,99.90
2022-08-22T04:02:43.595Z,99.90
2022-08-22T04:04:16.071Z,99.90
2022-08-22T04:05:29.572Z,99.90
2022-08-22T04:06:57.716Z,99.90
2022-08-22T04:08:43.880Z,99.90
2022-08-22T04:10:19.910Z,99.90
2022-08-22T04:11:58.833Z,99.90
2022-08-22T04:13:38.105Z,99.90
2022-08-22T04:15:00.080Z,99.90
2022-08-22T04:16:20.669Z,99.90
2022-08-22T04:17:40.937Z,99.90
2022-08-22T04:19:03.414Z,99.90
2022-08-22T04:20:37.721Z,99.90
2022-08-22T04:21:56.267Z,99.90
2022-08-22T04:23:12.596Z,99.90
2022-08-22T04:24:23.219Z,99.90
2022-08-22T04:25:35.565Z,99.90
2022-08-22T04:26:47.352Z,99.90
2022-08-22T04:28:22.085Z,99.90
2022-08-22T04:29:42.733Z,99.90
2022-08-22T04:30:52.973Z,99.90
2022-08-22T04:32:09.783Z,99.90
2022-08-22T04:33:39.616Z,99.90
2022-08-22T04:35:27.492Z,99.90
2022-08-22T04:36:48.922Z,99.90
2022-08-22T04:37:57.199Z,99.90
2022-08-22T04:39:18.374Z,99.90
2022-08-22T04:40:25.971Z,99.90
2022-08-22T04:41:53.348Z,99.90
2022-08-22T04:43:03.638Z,99.90
2022-08-22T04:44:15.944Z,99.90
2022-08-22T04:45:27.235Z,99.90
2022-08-22T04:46:45.810Z,99.90
2022-08-22T04:48:16.343Z,99.90
2022-08-22T04:49:29.982Z,99.90
2022-08-22T04:51:03.191Z,99.90
2022-08-22T04:52:15.764Z,99.90
2022-08-22T04:53:48.007Z,99.90
2022-08-22T04:55:30.872Z,99.90
2022-08-22T04:57:11.395Z,99.90
2022-08-22T04:58:26.626Z,99.90
2022-08-22T04:59:30.758Z,99.90
2022-08-22T05:00:44.863Z,99.90
2022-08-22T05:01:58.287Z,99.90
2022-08-22T05:03:02.350Z,99.90
2022-08-22T05:04:11.206Z,99.90
2022-08-22T05:05:24.637Z,99.90
2022-08-22T05:06:31.685Z,99.90
2022-08-22T05:07:37.353Z,99.90
2022-08-22T05:08:41.117Z,99.90
2022-08-22T05:09:48.017Z,99.90
2022-08-22T05:10:52.116Z,99.90
2022-08-22T05:11:58.030Z,99.90
2022-08-22T05:13:23.894Z,99.90
2022-08-22T05:14:32.694Z,99.90
2022-08-22T05:15:39.097Z,99.90
2022-08-22T05:16:43.999Z,99.90
2022-08-22T05:17:48.958Z,99.90
2022-08-22T05:19:00.150Z,99.90
2022-08-22T05:20:12.002Z,99.90
2022-08-22T05:21:20.846Z,99.90
2022-08-22T05:22:29.013Z,99.90
2022-08-22T05:23:43.204Z,99.90
2022-08-22T05:24:53.536Z,99.90
2022-08-22T05:26:00.805Z,99.90
2022-08-22T05:27:11.372Z,99.90
2022-08-22T05:28:21.753Z,99.90
2022-08-22T05:29:28.788Z,99.90
2022-08-22T05:30:33.790Z,99.90
2022-08-22T05:31:41.851Z,99.90
2022-08-22T05:32:51.900Z,99.90
2022-08-22T05:34:08.176Z,99.90
2022-08-22T05:35:10.651Z,99.90
2022-08-22T05:36:19.287Z,99.90
2022-08-22T05:37:30.961Z,99.90
2022-08-22T05:38:36.934Z,99.90
2022-08-22T05:39:47.336Z,99.90
2022-08-22T05:40:57.745Z,99.90
2022-08-22T05:42:03.326Z,99.90
2022-08-22T05:43:06.534Z,99.90
2022-08-22T05:44:16.514Z,99.90
2022-08-22T05:45:19.321Z,99.90
2022-08-22T05:46:41.270Z,99.90
2022-08-22T05:47:51.032Z,99.90
2022-08-22T05:49:04.082Z,99.90
2022-08-22T05:50:15.104Z,99.90
2022-08-22T05:51:25.901Z,99.90
2022-08-22T05:52:54.556Z,99.90
2022-08-22T05:54:10.872Z,99.90
2022-08-22T05:55:51.024Z,99.90
2022-08-22T05:56:57.803Z,99.90
2022-08-22T05:58:31.774Z,99.90
2022-08-22T05:59:38.265Z,99.90
2022-08-22T06:00:45.853Z,99.90
2022-08-22T06:02:00.114Z,99.90
2022-08-22T06:03:21.095Z,99.90
2022-08-22T06:04:41.370Z,99.90
2022-08-22T06:05:50.812Z,99.90
2022-08-22T06:07:04.771Z,99.90
2022-08-22T06:08:22.543Z,99.90
2022-08-22T06:09:35.542Z,99.90
2022-08-22T06:10:48.085Z,99.90
2022-08-22T06:12:08.292Z,99.90
2022-08-22T06:13:24.810Z,99.90
2022-08-22T06:14:31.835Z,99.90
2022-08-22T06:15:52.240Z,99.90
2022-08-22T06:17:12.234Z,99.90
2022-08-22T06:18:19.193Z,99.90
2022-08-22T06:19:21.726Z,99.90
2022-08-22T06:20:28.634Z,99.90
2022-08-22T06:21:39.305Z,99.90
2022-08-22T06:22:51.272Z,99.90
2022-08-22T06:24:02.265Z,99.90
2022-08-22T06:25:14.517Z,99.90
2022-08-22T06:26:20.722Z,99.90
2022-08-22T06:27:27.584Z,99.90
2022-08-22T06:28:55.228Z,99.90
2022-08-22T06:30:02.696Z,99.90
2022-08-22T06:31:06.245Z,99.90
2022-08-22T06:32:14.254Z,99.90
2022-08-22T06:33:23.704Z,99.90
2022-08-22T06:34:29.869Z,99.90
2022-08-22T06:36:00.510Z,99.90
2022-08-22T06:37:07.432Z,99.90
2022-08-22T06:38:11.351Z,99.90
2022-08-22T06:39:32.488Z,99.90
2022-08-22T06:40:34.584Z,99.90
2022-08-22T06:41:45.224Z,99.90
2022-08-22T06:42:51.786Z,99.90
2022-08-22T06:43:55.251Z,99.90
2022-08-22T06:45:01.529Z,99.90
2022-08-22T06:46:04.816Z,99.90
2022-08-22T06:47:10.291Z,99.90
2022-08-22T06:48:16.672Z,99.90
2022-08-22T06:49:24.286Z,99.90
2022-08-22T06:50:34.928Z,99.90
2022-08-22T06:51:38.904Z,99.90
2022-08-22T06:53:07.549Z,99.90
2022-08-22T06:54:17.836Z,99.90
2022-08-22T06:55:20.854Z,99.90
2022-08-22T06:56:45.086Z,99.90
2022-08-22T06:57:56.333Z,99.90
2022-08-22T06:59:02.729Z,99.90
2022-08-22T07:00:11.918Z,99.90
2022-08-22T07:01:21.465Z,99.90
2022-08-22T07:02:31.305Z,99.90
2022-08-22T07:03:38.623Z,99.90
2022-08-22T07:04:40.347Z,99.90
2022-08-22T07:05:48.108Z,99.90
2022-08-22T07:06:51.547Z,99.90
2022-08-22T07:07:58.807Z,99.90
2022-08-22T07:09:05.714Z,99.90
2022-08-22T07:10:13.978Z,99.90
2022-08-22T07:11:25.921Z,99.90
2022-08-22T07:12:31.829Z,99.90
2022-08-22T07:13:38.108Z,99.90
2022-08-22T07:14:52.597Z,99.90
2022-08-22T07:15:59.184Z,99.90
2022-08-22T07:17:04.729Z,99.90
2022-08-22T07:18:15.032Z,99.90
2022-08-22T07:19:27.329Z,99.90
2022-08-22T07:20:35.263Z,99.90
2022-08-22T07:21:48.264Z,99.90
2022-08-22T07:22:59.312Z,99.90
2022-08-22T07:24:01.369Z,99.90
2022-08-22T07:25:08.167Z,99.90
2022-08-22T07:26:27.762Z,99.90
2022-08-22T07:28:03.869Z,99.90
2022-08-22T07:29:15.257Z,99.90
2022-08-22T07:30:28.046Z,99.90
2022-08-22T07:31:37.263Z,99.90
2022-08-22T07:33:26.385Z,99.90
2022-08-22T07:34:48.668Z,99.90
2022-08-22T07:36:01.636Z,99.90
2022-08-22T07:37:18.447Z,99.90
2022-08-22T07:38:42.754Z,99.90
2022-08-22T07:40:22.781Z,99.90
2022-08-22T07:41:35.188Z,99.90
2022-08-22T07:42:55.463Z,99.90
2022-08-22T07:44:15.511Z,99.90
2022-08-22T07:45:45.119Z,99.90
2022-08-22T07:47:12.687Z,99.90
2022-08-22T07:48:29.990Z,99.90
2022-08-22T07:49:49.584Z,99.90
2022-08-22T07:51:14.048Z,99.90
2022-08-22T07:52:16.898Z,99.90
2022-08-22T07:53:28.569Z,99.90
2022-08-22T07:54:43.095Z,99.90
2022-08-22T07:55:49.763Z,99.90
2022-08-22T07:57:15.093Z,99.90
2022-08-22T07:58:18.915Z,99.90
2022-08-22T07:59:21.985Z,99.90
2022-08-22T08:00:24.686Z,99.90
2022-08-22T08:01:27.425Z,99.90
2022-08-22T08:02:29.716Z,99.90
2022-08-22T08:03:31.814Z,99.90
2022-08-22T08:04:40.234Z,99.90
2022-08-22T08:05:44.815Z,99.90
2022-08-22T08:06:52.839Z,99.90
2022-08-22T08:07:56.404Z,99.90
2022-08-22T08:08:58.864Z,99.90
2022-08-22T08:10:13.123Z,99.90
2022-08-22T08:11:19.899Z,99.90
2022-08-22T08:12:52.653Z,99.90
2022-08-22T08:14:06.286Z,99.90
2022-08-22T08:15:15.212Z,99.90
2022-08-22T08:16:20.111Z,99.90
2022-08-22T08:17:32.025Z,99.90
2022-08-22T08:18:36.209Z,99.90
2022-08-22T08:19:41.633Z,99.90
2022-08-22T08:21:01.798Z,99.90
2022-08-22T08:22:05.664Z,99.90
2022-08-22T08:23:10.185Z,99.90
2022-08-22T08:24:15.998Z,99.90
2022-08-22T08:25:22.779Z,99.90
2022-08-22T08:26:35.552Z,99.90
2022-08-22T08:28:00.674Z,99.90
2022-08-22T08:29:04.518Z,99.90
2022-08-22T08:30:17.770Z,99.90
2022-08-22T08:31:27.523Z,99.90
2022-08-22T08:32:34.529Z,99.90
2022-08-22T08:33:42.418Z,99.90
2022-08-22T08:34:44.818Z,99.90
2022-08-22T08:36:13.800Z,99.90
2022-08-22T08:37:54.947Z,99.90
2022-08-22T08:39:12.508Z,99.90
2022-08-22T08:40:34.176Z,99.90
2022-08-22T08:41:56.863Z,99.90
2022-08-22T08:43:21.109Z,99.90
2022-08-22T08:44:37.211Z,99.90
2022-08-22T08:45:44.623Z,99.90
2022-08-22T08:47:19.581Z,99.90
2022-08-22T08:48:48.405Z,99.90
2022-08-22T08:50:24.106Z,99.90
2022-08-22T08:52:09.432Z,99.90
2022-08-22T08:53:42.902Z,99.90
2022-08-22T08:55:38.616Z,99.90
2022-08-22T08:57:00.462Z,99.90
2022-08-22T08:58:33.744Z,99.90
2022-08-22T09:00:02.883Z,99.90
2022-08-22T09:01:41.566Z,99.90
2022-08-22T09:03:12.086Z,99.90
2022-08-22T09:04:17.821Z,99.90
2022-08-22T09:05:52.976Z,99.90
2022-08-22T09:07:32.386Z,99.90
2022-08-22T09:08:57.635Z,99.90
2022-08-22T09:10:31.438Z,99.90
2022-08-22T09:11:51.709Z,99.90
2022-08-22T09:13:15.356Z,99.90
2022-08-22T09:14:40.924Z,99.90
2022-08-22T09:16:05.234Z,99.90
2022-08-22T09:17:38.731Z,99.90
2022-08-22T09:18:46.700Z,99.90
2022-08-22T09:20:20.924Z,99.90
2022-08-22T09:21:30.574Z,99.90
2022-08-22T09:23:15.810Z,99.90
2022-08-22T09:24:37.597Z,99.90
2022-08-22T09:25:49.917Z,99.90
2022-08-22T09:26:57.333Z,99.90
2022-08-22T09:28:11.177Z,99.90
2022-08-22T09:29:51.457Z,99.90
2022-08-22T09:31:02.815Z,99.90
2022-08-22T09:32:28.895Z,99.90
2022-08-22T09:33:54.600Z,99.90
2022-08-22T09:35:03.109Z,99.90
2022-08-22T09:36:19.954Z,99.90
2022-08-22T09:37:49.886Z,99.90
2022-08-22T09:38:55.737Z,99.90
2022-08-22T09:40:03.651Z,99.90
2022-08-22T09:41:34.575Z,99.90
2022-08-22T09:42:48.769Z,99.90
2022-08-22T09:44:15.761Z,99.90
2022-08-22T09:45:39.060Z,99.90
2022-08-22T09:46:55.942Z,99.90
2022-08-22T09:48:12.120Z,99.90
2022-08-22T09:49:34.626Z,99.90
2022-08-22T09:51:31.832Z,99.90
2022-08-22T09:52:49.292Z,99.90
2022-08-22T09:53:54.288Z,99.90
2022-08-22T09:55:09.346Z,99.90
2022-08-22T09:56:26.747Z,99.90
2022-08-22T09:57:50.115Z,99.90
2022-08-22T09:58:57.903Z,99.90
2022-08-22T10:00:05.664Z,99.90
2022-08-22T10:01:22.287Z,99.90
2022-08-22T10:02:29.445Z,99.90
2022-08-22T10:04:19.462Z,99.90
2022-08-22T10:05:41.303Z,99.90
2022-08-22T10:07:01.263Z,99.90
2022-08-22T10:08:20.222Z,99.90
2022-08-22T10:10:00.950Z,99.90
2022-08-22T10:11:23.862Z,99.90
2022-08-22T10:12:36.403Z,99.90
2022-08-22T10:14:01.023Z,99.90
2022-08-22T10:15:46.302Z,99.90
2022-08-22T10:17:09.257Z,99.90
2022-08-22T10:18:38.002Z,99.90
2022-08-22T10:20:15.755Z,99.90
2022-08-22T10:21:46.420Z,99.90
2022-08-22T10:22:58.172Z,99.90
2022-08-22T10:24:25.712Z,99.90
2022-08-22T10:25:30.458Z,99.90
2022-08-22T10:26:54.512Z,99.90
2022-08-22T10:28:03.097Z,99.90
2022-08-22T10:29:48.262Z,99.90
2022-08-22T10:31:02.076Z,99.90
2022-08-22T10:32:26.915Z,99.90
2022-08-22T10:33:46.590Z,99.90
2022-08-22T10:34:55.585Z,99.90
2022-08-22T10:36:12.076Z,99.90
2022-08-22T10:37:33.413Z,99.90
2022-08-22T10:38:46.875Z,99.90
2022-08-22T10:40:12.513Z,99.90
2022-08-22T10:41:38.988Z,99.90
2022-08-22T10:42:51.813Z,99.90
2022-08-22T10:44:03.951Z,99.90
2022-08-22T10:45:36.253Z,99.90
2022-08-22T10:47:05.487Z,99.90
2022-08-22T10:48:10.535Z,99.90
2022-08-22T10:49:45.980Z,99.90
2022-08-22T10:51:20.103Z,99.90
2022-08-22T10:52:24.544Z,99.90
2022-08-22T10:53:35.858Z,99.90
2022-08-22T10:54:48.432Z,99.90
2022-08-22T10:55:55.849Z,99.90
2022-08-22T10:57:00.759Z,99.90
2022-08-22T10:58:11.025Z,99.90
2022-08-22T10:59:39.665Z,99.90
2022-08-22T11:01:01.333Z,99.90
2022-08-22T11:02:44.870Z,99.90
2022-08-22T11:03:53.163Z,99.90
2022-08-22T11:05:22.960Z,99.90
2022-08-22T11:06:39.903Z,99.90
2022-08-22T11:07:59.148Z,99.90
2022-08-22T11:09:03.792Z,99.90
2022-08-22T11:10:34.861Z,99.90
2022-08-22T11:11:45.634Z,99.90
2022-08-22T11:13:08.693Z,99.90
2022-08-22T11:14:25.845Z,99.90
2022-08-22T11:15:49.609Z,99.90
2022-08-22T11:17:23.537Z,99.90
2022-08-22T11:18:57.988Z,99.90
2022-08-22T11:20:33.435Z,99.90
2022-08-22T11:21:47.671Z,99.90
2022-08-22T11:23:12.279Z,99.90
2022-08-22T11:24:56.412Z,99.90
2022-08-22T11:26:30.120Z,99.90
2022-08-22T11:27:55.364Z,99.90
2022-08-22T11:29:31.538Z,99.90
2022-08-22T11:30:52.798Z,99.90
2022-08-22T11:32:12.381Z,99.90
2022-08-22T11:33:37.415Z,99.90
2022-08-22T11:35:01.409Z,99.90
2022-08-22T11:36:39.344Z,99.90
2022-08-22T11:38:00.111Z,99.90
2022-08-22T11:39:21.634Z,99.90
2022-08-22T11:40:49.748Z,99.90
2022-08-22T11:42:12.563Z,99.90
2022-08-22T11:43:36.800Z,99.90
2022-08-22T11:44:57.256Z,99.90
2022-08-22T11:46:15.648Z,99.90
2022-08-22T11:47:27.192Z,99.90
2022-08-22T11:48:56.454Z,99.90
2022-08-22T11:50:22.153Z,99.90
2022-08-22T11:52:02.980Z,99.90
2022-08-22T11:53:19.946Z,99.90
2022-08-22T11:54:57.955Z,99.90
2022-08-22T11:56:17.384Z,99.90
2022-08-22T11:57:35.092Z,99.90
2022-08-22T11:59:07.415Z,99.90
2022-08-22T12:00:32.371Z,99.90
2022-08-22T12:01:42.733Z,99.90
2022-08-22T12:03:00.253Z,99.90
2022-08-22T12:04:30.884Z,99.90
2022-08-22T12:05:45.176Z,99.90
2022-08-22T12:06:50.745Z,99.90
2022-08-22T12:08:03.798Z,99.90
2022-08-22T12:09:29.975Z,99.90
2022-08-22T12:10:36.011Z,99.90
2022-08-22T12:11:57.669Z,99.90
2022-08-22T12:13:15.437Z,99.90
2022-08-22T12:14:30.199Z,99.90
2022-08-22T12:16:01.662Z,99.90
2022-08-22T12:17:11.295Z,99.90
2022-08-22T12:18:45.074Z,99.90
2022-08-22T12:20:16.386Z,99.90
2022-08-22T12:21:38.475Z,99.90
2022-08-22T12:23:15.626Z,99.90
2022-08-22T12:24:33.770Z,99.90
2022-08-22T12:25:59.818Z,99.90
2022-08-22T12:27:31.095Z,99.90
2022-08-22T12:28:52.346Z,99.90
2022-08-22T12:30:16.084Z,99.90
2022-08-22T12:31:41.150Z,99.90
2022-08-22T12:33:17.313Z,99.90
2022-08-22T12:34:42.458Z,99.90
2022-08-22T12:36:17.855Z,99.90
2022-08-22T12:37:36.127Z,99.90
2022-08-22T12:38:54.250Z,99.90
2022-08-22T12:40:02.477Z,99.90
2022-08-22T12:41:28.146Z,99.90
2022-08-22T12:42:54.211Z,99.90
2022-08-22T12:44:23.935Z,99.90
2022-08-22T12:45:33.606Z,99.90
2022-08-22T12:46:48.444Z,99.90
2022-08-22T12:47:58.287Z,99.90
2022-08-22T12:49:29.512Z,99.90
2022-08-22T12:50:34.326Z,99.90
2022-08-22T12:52:25.018Z,99.90
2022-08-22T12:53:47.803Z,99.90
2022-08-22T12:55:11.777Z,99.90
2022-08-22T12:56:37.509Z,99.90
2022-08-22T12:57:54.186Z,99.90
2022-08-22T12:59:33.746Z,99.90
2022-08-22T13:00:41.626Z,99.90
2022-08-22T13:01:48.246Z,99.90
2022-08-22T13:02:53.815Z,99.90
2022-08-22T13:04:03.433Z,99.90
2022-08-22T13:05:19.861Z,99.90
2022-08-22T13:06:33.884Z,99.90
2022-08-22T13:07:38.448Z,99.90
2022-08-22T13:08:44.842Z,99.90
2022-08-22T13:09:50.230Z,99.90
2022-08-22T13:11:09.857Z,99.90
2022-08-22T13:12:25.674Z,99.90
2022-08-22T13:13:36.953Z,99.90
2022-08-22T13:14:39.346Z,99.90
2022-08-22T13:15:54.082Z,99.90
2022-08-22T13:17:00.762Z,99.90
2022-08-22T13:18:30.596Z,99.90
2022-08-22T13:19:38.944Z,99.90
2022-08-22T13:20:47.436Z,99.90
2022-08-22T13:21:57.048Z,99.90
2022-08-22T13:23:01.242Z,99.90
2022-08-22T13:24:12.835Z,99.90
2022-08-22T13:25:26.011Z,99.90
2022-08-22T13:26:32.893Z,99.90
2022-08-22T13:27:51.050Z,99.90
2022-08-22T13:29:24.161Z,99.90
2022-08-22T13:30:37.683Z,99.90
2022-08-22T13:31:42.099Z,99.90
2022-08-22T13:33:12.563Z,99.90
2022-08-22T13:34:33.959Z,99.90
2022-08-22T13:35:52.272Z,99.90
2022-08-22T13:36:59.171Z,99.90
2022-08-22T13:38:12.292Z,99.90
2022-08-22T13:39:14.718Z,99.90
2022-08-22T13:40:29.570Z,99.90
2022-08-22T13:41:42.660Z,99.90
2022-08-22T13:42:48.919Z,99.90
2022-08-22T13:44:17.880Z,99.90
2022-08-22T13:45:27.025Z,99.90
2022-08-22T13:46:31.181Z,99.90
2022-08-22T13:47:48.979Z,99.90
2022-08-22T13:49:00.558Z,99.90
2022-08-22T13:50:08.884Z,99.80
2022-08-22T13:51:33.563Z,98.30
2022-08-22T13:52:58.429Z,97.60
2022-08-22T13:54:10.768Z,96.70
2022-08-22T13:55:21.324Z,95.50
2022-08-22T13:56:29.835Z,94.60
2022-08-22T13:57:42.072Z,93.20
2022-08-22T13:58:55.055Z,92.70
2022-08-22T14:00:29.190Z,92.80
2022-08-22T14:01:50.407Z,92.40
2022-08-22T14:03:05.690Z,92.80
2022-08-22T14:04:33.553Z,92.50
2022-08-22T14:05:54.599Z,92.20
2022-08-22T14:07:10.733Z,92.90
2022-08-22T14:08:18.608Z,93.60
2022-08-22T14:09:41.398Z,93.70
2022-08-22T14:10:54.931Z,92.50
2022-08-22T14:12:22.612Z,92.50
2022-08-22T14:13:36.672Z,93.30
2022-08-22T14:14:42.670Z,93.90
2022-08-22T14:15:48.304Z,94.90
2022-08-22T14:16:55.140Z,96.10
2022-08-22T14:18:14.361Z,96.80
2022-08-22T14:19:32.153Z,97.90
2022-08-22T14:20:51.313Z,98.70
2022-08-22T14:22:03.520Z,99.80
2022-08-22T14:23:11.951Z,99.90
2022-08-22T14:24:29.634Z,99.90
2022-08-22T14:25:36.467Z,99.90
2022-08-22T14:26:47.571Z,99.90
2022-08-22T14:28:00.870Z,99.90
2022-08-22T14:29:07.741Z,99.90
2022-08-22T14:30:18.710Z,99.90
2022-08-22T14:31:25.685Z,99.90
2022-08-22T14:33:03.205Z,99.90
2022-08-22T14:34:13.987Z,99.90
2022-08-22T14:35:34.699Z,99.90
2022-08-22T14:37:21.808Z,99.90
2022-08-22T14:38:30.245Z,99.90
2022-08-22T14:39:42.768Z,99.90
2022-08-22T14:40:47.561Z,99.90
2022-08-22T14:41:57.943Z,99.90
2022-08-22T14:43:06.662Z,99.90
2022-08-22T14:44:49.596Z,99.90
2022-08-22T14:46:08.950Z,99.90
2022-08-22T14:47:36.825Z,99.90
2022-08-22T14:49:08.566Z,99.90
2022-08-22T14:50:36.716Z,99.90
2022-08-22T14:51:38.985Z,99.90
2022-08-22T14:52:48.619Z,99.90
2022-08-22T14:53:50.789Z,99.90
2022-08-22T14:55:08.756Z,99.90
2022-08-22T14:56:24.272Z,99.90
2022-08-22T14:57:26.321Z,99.90
2022-08-22T14:58:31.427Z,99.90
2022-08-22T14:59:46.602Z,99.90
2022-08-22T15:00:54.655Z,99.90
2022-08-22T15:02:01.635Z,99.90
2022-08-22T15:03:35.124Z,99.90
2022-08-22T15:04:46.757Z,99.90
2022-08-22T15:05:53.983Z,99.90
2022-08-22T15:06:59.125Z,99.90
2022-08-22T15:08:01.248Z,99.90
2022-08-22T15:09:28.953Z,99.90
2022-08-22T15:10:34.346Z,99.90
2022-08-22T15:11:37.376Z,99.90
2022-08-22T15:12:51.275Z,99.90
2022-08-22T15:14:12.706Z,99.90
2022-08-22T15:15:41.117Z,99.90
2022-08-22T15:16:53.633Z,99.90
2022-08-22T15:17:56.242Z,99.90
2022-08-22T15:19:00.196Z,99.90
2022-08-22T15:20:27.708Z,99.90
2022-08-22T15:21:32.908Z,99.90
2022-08-22T15:22:45.487Z,99.90
2022-08-22T15:23:48.975Z,99.90
2022-08-22T15:25:01.147Z,99.90
2022-08-22T15:26:13.051Z,99.90
2022-08-22T15:27:19.288Z,99.90
2022-08-22T15:28:21.409Z,99.90
2022-08-22T15:29:25.072Z,99.90
2022-08-22T15:31:03.710Z,99.90
2022-08-22T15:32:06.509Z,99.90
2022-08-22T15:33:16.205Z,99.90
2022-08-22T15:34:42.339Z,99.90
2022-08-22T15:35:45.365Z,99.90
2022-08-22T15:37:10.979Z,99.90
2022-08-22T15:38:32.558Z,99.90
2022-08-22T15:39:58.398Z,99.90
2022-08-22T15:41:36.005Z,99.90
2022-08-22T15:42:51.031Z,99.90
2022-08-22T15:44:07.084Z,99.90
2022-08-22T15:45:34.811Z,99.90
2022-08-22T15:46:52.496Z,99.90
2022-08-22T15:47:56.008Z,99.90
2022-08-22T15:49:20.136Z,99.90
2022-08-22T15:50:39.468Z,99.90
2022-08-22T15:52:01.409Z,99.90
2022-08-22T15:53:15.381Z,99.90
2022-08-22T15:54:24.983Z,99.90
2022-08-22T15:55:28.394Z,99.90
2022-08-22T15:56:35.016Z,99.90
2022-08-22T15:57:41.107Z,99.90
2022-08-22T15:59:13.445Z,99.90
2022-08-22T16:00:43.413Z,99.90
2022-08-22T16:02:13.883Z,99.90
2022-08-22T16:03:26.803Z,99.90
2022-08-22T16:04:39.722Z,99.90
2022-08-22T16:05:55.827Z,99.90
2022-08-22T16:07:02.876Z,99.90
2022-08-22T16:08:41.485Z,99.90
2022-08-22T16:09:49.428Z,99.90
2022-08-22T16:11:16.665Z,99.90
2022-08-22T16:12:36.587Z,99.90
2022-08-22T16:13:42.373Z,99.90
2022-08-22T16:14:49.803Z,99.90
2022-08-22T16:15:58.173Z,99.90
2022-08-22T16:17:04.438Z,99.90
2022-08-22T16:18:06.801Z,99.90
2022-08-22T16:19:16.860Z,99.90
2022-08-22T16:20:20.081Z,99.90
2022-08-22T16:21:25.478Z,99.90
2022-08-22T16:22:58.135Z,99.90
2022-08-22T16:24:00.961Z,99.90
2022-08-22T16:25:06.455Z,99.90
2022-08-22T16:26:15.648Z,99.90
2022-08-22T16:27:21.077Z,99.90
2022-08-22T16:28:56.155Z,99.90
2022-08-22T16:30:02.689Z,99.90
2022-08-22T16:31:35.741Z,99.90
2022-08-22T16:32:38.639Z,99.90
2022-08-22T16:33:42.776Z,99.90
2022-08-22T16:34:45.900Z,99.90
2022-08-22T16:36:25.085Z,99.90
2022-08-22T16:37:41.843Z,99.90
2022-08-22T16:38:50.858Z,99.90
2022-08-22T16:39:58.701Z,99.90